sensor_id;sensor_type;location;lat;lon;timestamp;pressure;altitude;pressure_sealevel;temperature;humidity
36598;BME280;22607;49.550;11.940;2023-02-23T00:02:01;96471.38;;;7.12;100.00
36598;BME280;22607;49.550;11.940;2023-02-23T00:04:32;96473.19;;;7.11;100.00
36598;BME280;22607;49.550;11.940;2023-02-23T00:06:58;96470.44;;;7.29;100.00
36598;BME280;22607;49.550;11.940;2023-02-23T00:09:26;96469.13;;;7.25;100.00
36598;BME280;22607;49.550;11.940;2023-02-23T00:12:02;96458.59;;;6.92;100.00
36598;BME280;22607;49.550;11.940;2023-02-23T00:14:35;96455.84;;;6.93;100.00
36598;BME280;22607;49.550;11.940;2023-02-23T00:17:03;96456.81;;;6.92;100.00
36598;BME280;22607;49.550;11.940;2023-02-23T00:19:30;96466.44;;;6.92;100.00
36598;BME280;22607;49.550;11.940;2023-02-23T00:21:58;96463.81;;;6.92;100.00
36598;BME280;22607;49.550;11.940;2023-02-23T00:24:26;96454.00;;;6.77;100.00
36598;BME280;22607;49.550;11.940;2023-02-23T00:26:52;96459.06;;;6.79;100.00
36598;BME280;22607;49.550;11.940;2023-02-23T00:29:21;96458.38;;;6.68;100.00
36598;BME280;22607;49.550;11.940;2023-02-23T00:31:50;96454.94;;;6.68;100.00
36598;BME280;22607;49.550;11.940;2023-02-23T00:34:18;96461.94;;;6.67;100.00
36598;BME280;22607;49.550;11.940;2023-02-23T00:36:52;96460.31;;;6.66;100.00
36598;BME280;22607;49.550;11.940;2023-02-23T00:39:23;96464.38;;;6.69;100.00
36598;BME280;22607;49.550;11.940;2023-02-23T00:41:52;96469.69;;;6.51;100.00
36598;BME280;22607;49.550;11.940;2023-02-23T00:44:19;96474.44;;;6.55;100.00
36598;BME280;22607;49.550;11.940;2023-02-23T00:46:47;96462.41;;;6.63;100.00
36598;BME280;22607;49.550;11.940;2023-02-23T00:49:19;96464.84;;;6.56;100.00
36598;BME280;22607;49.550;11.940;2023-02-23T00:51:47;96470.25;;;6.63;100.00
36598;BME280;22607;49.550;11.940;2023-02-23T00:54:14;96464.19;;;6.62;100.00
36598;BME280;22607;49.550;11.940;2023-02-23T00:56:41;96475.63;;;6.61;100.00
36598;BME280;22607;49.550;11.940;2023-02-23T00:59:08;96473.19;;;6.68;100.00
36598;BME280;22607;49.550;11.940;2023-02-23T01:01:35;96464.53;;;6.59;100.00
36598;BME280;22607;49.550;11.940;2023-02-23T01:04:03;96467.88;;;6.51;100.00
36598;BME280;22607;49.550;11.940;2023-02-23T01:06:31;96468.31;;;6.38;100.00
36598;BME280;22607;49.550;11.940;2023-02-23T01:08:57;96470.72;;;6.32;100.00
36598;BME280;22607;49.550;11.940;2023-02-23T01:11:26;96476.81;;;6.40;100.00
36598;BME280;22607;49.550;11.940;2023-02-23T01:13:56;96470.47;;;6.43;100.00
36598;BME280;22607;49.550;11.940;2023-02-23T01:16:27;96476.00;;;6.40;100.00
36598;BME280;22607;49.550;11.940;2023-02-23T01:18:56;96472.47;;;6.49;100.00
36598;BME280;22607;49.550;11.940;2023-02-23T01:21:25;96465.81;;;6.55;100.00
36598;BME280;22607;49.550;11.940;2023-02-23T01:23:53;96467.72;;;6.45;100.00
36598;BME280;22607;49.550;11.940;2023-02-23T01:26:22;96458.38;;;6.34;100.00
36598;BME280;22607;49.550;11.940;2023-02-23T01:28:54;96458.81;;;6.29;100.00
36598;BME280;22607;49.550;11.940;2023-02-23T01:31:22;96457.75;;;6.13;100.00
36598;BME280;22607;49.550;11.940;2023-02-23T01:33:57;96457.31;;;6.00;100.00
36598;BME280;22607;49.550;11.940;2023-02-23T01:36:25;96454.94;;;6.07;100.00
36598;BME280;22607;49.550;11.940;2023-02-23T01:38:52;96455.31;;;5.94;100.00
36598;BME280;22607;49.550;11.940;2023-02-23T01:41:27;96455.00;;;5.97;100.00
36598;BME280;22607;49.550;11.940;2023-02-23T01:44:02;96445.03;;;5.92;100.00
36598;BME280;22607;49.550;11.940;2023-02-23T01:46:37;96451.72;;;5.95;100.00
36598;BME280;22607;49.550;11.940;2023-02-23T01:49:07;96449.44;;;6.10;100.00
36598;BME280;22607;49.550;11.940;2023-02-23T01:51:41;96440.19;;;5.97;100.00
36598;BME280;22607;49.550;11.940;2023-02-23T01:54:09;96442.72;;;5.89;100.00
36598;BME280;22607;49.550;11.940;2023-02-23T01:56:41;96440.53;;;6.02;100.00
36598;BME280;22607;49.550;11.940;2023-02-23T01:59:11;96436.25;;;5.93;100.00
36598;BME280;22607;49.550;11.940;2023-02-23T02:01:41;96438.94;;;5.83;100.00
36598;BME280;22607;49.550;11.940;2023-02-23T02:04:08;96438.28;;;5.81;100.00
36598;BME280;22607;49.550;11.940;2023-02-23T02:06:44;96435.19;;;5.86;100.00
36598;BME280;22607;49.550;11.940;2023-02-23T02:09:14;96436.38;;;5.91;100.00
36598;BME280;22607;49.550;11.940;2023-02-23T02:11:43;96430.97;;;5.85;100.00
36598;BME280;22607;49.550;11.940;2023-02-23T02:14:25;96431.69;;;5.95;100.00
36598;BME280;22607;49.550;11.940;2023-02-23T02:17:21;96435.72;;;5.89;100.00
36598;BME280;22607;49.550;11.940;2023-02-23T02:39:10;96438.94;;;5.83;100.00
36598;BME280;22607;49.550;11.940;2023-02-23T02:44:56;96439.75;;;5.84;100.00
36598;BME280;22607;49.550;11.940;2023-02-23T02:47:46;96431.28;;;5.82;100.00
36598;BME280;22607;49.550;11.940;2023-02-23T02:50:41;96436.53;;;5.90;100.00
36598;BME280;22607;49.550;11.940;2023-02-23T02:53:15;96427.09;;;5.89;100.00
36598;BME280;22607;49.550;11.940;2023-02-23T02:55:46;96423.16;;;5.85;100.00
36598;BME280;22607;49.550;11.940;2023-02-23T02:58:15;96432.22;;;5.81;100.00
36598;BME280;22607;49.550;11.940;2023-02-23T03:00:46;96429.34;;;5.84;100.00
36598;BME280;22607;49.550;11.940;2023-02-23T03:03:35;96439.47;;;5.87;100.00
36598;BME280;22607;49.550;11.940;2023-02-23T03:06:28;96438.00;;;5.66;100.00
36598;BME280;22607;49.550;11.940;2023-02-23T03:12:44;96439.19;;;5.72;100.00
36598;BME280;22607;49.550;11.940;2023-02-23T03:22:29;96444.94;;;5.57;100.00
36598;BME280;22607;49.550;11.940;2023-02-23T03:25:28;96442.28;;;5.75;100.00
36598;BME280;22607;49.550;11.940;2023-02-23T03:28:18;96438.53;;;5.70;100.00
36598;BME280;22607;49.550;11.940;2023-02-23T03:31:26;96440.38;;;5.77;100.00
36598;BME280;22607;49.550;11.940;2023-02-23T03:34:29;96451.44;;;5.80;100.00
36598;BME280;22607;49.550;11.940;2023-02-23T03:40:08;96444.75;;;5.77;100.00
36598;BME280;22607;49.550;11.940;2023-02-23T03:43:05;96439.97;;;5.90;100.00
36598;BME280;22607;49.550;11.940;2023-02-23T03:45:51;96446.59;;;5.85;100.00
36598;BME280;22607;49.550;11.940;2023-02-23T03:48:47;96445.88;;;5.74;100.00
36598;BME280;22607;49.550;11.940;2023-02-23T03:51:36;96450.38;;;5.64;100.00
36598;BME280;22607;49.550;11.940;2023-02-23T03:54:35;96452.22;;;5.72;100.00
36598;BME280;22607;49.550;11.940;2023-02-23T03:57:25;96444.75;;;5.77;100.00
36598;BME280;22607;49.550;11.940;2023-02-23T04:00:18;96448.41;;;5.84;100.00
36598;BME280;22607;49.550;11.940;2023-02-23T04:03:06;96441.50;;;5.75;100.00
36598;BME280;22607;49.550;11.940;2023-02-23T04:05:53;96447.78;;;5.90;100.00
36598;BME280;22607;49.550;11.940;2023-02-23T04:08:46;96448.16;;;5.96;100.00
36598;BME280;22607;49.550;11.940;2023-02-23T04:11:39;96454.63;;;5.91;100.00
36598;BME280;22607;49.550;11.940;2023-02-23T04:14:44;96443.03;;;5.86;100.00
36598;BME280;22607;49.550;11.940;2023-02-23T04:17:14;96445.47;;;5.87;100.00
36598;BME280;22607;49.550;11.940;2023-02-23T04:19:51;96450.19;;;5.84;100.00
36598;BME280;22607;49.550;11.940;2023-02-23T04:22:18;96444.91;;;5.75;100.00
36598;BME280;22607;49.550;11.940;2023-02-23T04:24:45;96459.63;;;5.85;100.00
36598;BME280;22607;49.550;11.940;2023-02-23T04:27:12;96460.09;;;5.80;100.00
36598;BME280;22607;49.550;11.940;2023-02-23T04:29:39;96457.34;;;5.82;100.00
36598;BME280;22607;49.550;11.940;2023-02-23T04:32:06;96462.56;;;5.82;100.00
36598;BME280;22607;49.550;11.940;2023-02-23T04:34:37;96457.63;;;5.78;100.00
36598;BME280;22607;49.550;11.940;2023-02-23T04:37:04;96457.13;;;5.57;100.00
36598;BME280;22607;49.550;11.940;2023-02-23T04:39:36;96461.38;;;5.58;100.00
36598;BME280;22607;49.550;11.940;2023-02-23T04:42:03;96460.94;;;5.62;100.00
36598;BME280;22607;49.550;11.940;2023-02-23T04:44:29;96459.28;;;5.80;100.00
36598;BME280;22607;49.550;11.940;2023-02-23T04:46:56;96462.03;;;5.78;100.00
36598;BME280;22607;49.550;11.940;2023-02-23T04:49:24;96459.19;;;5.71;100.00
36598;BME280;22607;49.550;11.940;2023-02-23T04:51:51;96463.03;;;5.59;100.00
36598;BME280;22607;49.550;11.940;2023-02-23T04:54:17;96466.66;;;5.66;100.00
36598;BME280;22607;49.550;11.940;2023-02-23T04:56:43;96463.25;;;5.65;100.00
36598;BME280;22607;49.550;11.940;2023-02-23T04:59:10;96466.22;;;5.71;100.00
36598;BME280;22607;49.550;11.940;2023-02-23T05:01:36;96466.50;;;5.68;100.00
36598;BME280;22607;49.550;11.940;2023-02-23T05:04:03;96463.84;;;5.41;100.00
36598;BME280;22607;49.550;11.940;2023-02-23T05:06:32;96463.91;;;5.31;100.00
36598;BME280;22607;49.550;11.940;2023-02-23T05:08:58;96460.13;;;5.44;100.00
36598;BME280;22607;49.550;11.940;2023-02-23T05:11:25;96462.66;;;5.54;100.00
36598;BME280;22607;49.550;11.940;2023-02-23T05:13:53;96461.91;;;5.25;100.00
36598;BME280;22607;49.550;11.940;2023-02-23T05:16:20;96465.25;;;5.54;100.00
36598;BME280;22607;49.550;11.940;2023-02-23T05:18:46;96462.41;;;5.65;100.00
36598;BME280;22607;49.550;11.940;2023-02-23T05:21:13;96467.41;;;5.58;100.00
36598;BME280;22607;49.550;11.940;2023-02-23T05:23:40;96467.28;;;5.42;100.00
36598;BME280;22607;49.550;11.940;2023-02-23T05:26:09;96462.34;;;5.57;100.00
36598;BME280;22607;49.550;11.940;2023-02-23T05:28:37;96471.50;;;5.61;100.00
36598;BME280;22607;49.550;11.940;2023-02-23T05:31:04;96467.91;;;5.62;100.00
36598;BME280;22607;49.550;11.940;2023-02-23T05:33:32;96462.28;;;5.67;100.00
36598;BME280;22607;49.550;11.940;2023-02-23T05:35:59;96466.28;;;5.61;100.00
36598;BME280;22607;49.550;11.940;2023-02-23T05:38:29;96472.50;;;5.42;100.00
36598;BME280;22607;49.550;11.940;2023-02-23T05:40:55;96469.06;;;5.41;100.00
36598;BME280;22607;49.550;11.940;2023-02-23T05:43:22;96473.72;;;5.56;100.00
36598;BME280;22607;49.550;11.940;2023-02-23T05:45:48;96471.66;;;5.59;100.00
36598;BME280;22607;49.550;11.940;2023-02-23T05:48:15;96466.16;;;5.62;100.00
36598;BME280;22607;49.550;11.940;2023-02-23T05:50:41;96463.09;;;5.49;100.00
36598;BME280;22607;49.550;11.940;2023-02-23T05:53:08;96466.28;;;5.24;100.00
36598;BME280;22607;49.550;11.940;2023-02-23T05:55:35;96473.94;;;5.26;100.00
36598;BME280;22607;49.550;11.940;2023-02-23T05:58:02;96474.19;;;5.33;100.00
36598;BME280;22607;49.550;11.940;2023-02-23T06:00:29;96478.50;;;5.42;100.00
36598;BME280;22607;49.550;11.940;2023-02-23T06:02:57;96467.19;;;5.33;100.00
36598;BME280;22607;49.550;11.940;2023-02-23T06:05:24;96473.88;;;5.36;100.00
36598;BME280;22607;49.550;11.940;2023-02-23T06:07:50;96472.09;;;5.18;100.00
36598;BME280;22607;49.550;11.940;2023-02-23T06:10:17;96460.50;;;5.31;100.00
36598;BME280;22607;49.550;11.940;2023-02-23T06:12:43;96470.41;;;5.45;100.00
36598;BME280;22607;49.550;11.940;2023-02-23T06:15:10;96474.03;;;5.52;100.00
36598;BME280;22607;49.550;11.940;2023-02-23T06:17:36;96474.25;;;5.41;100.00
36598;BME280;22607;49.550;11.940;2023-02-23T06:20:04;96480.31;;;5.42;100.00
36598;BME280;22607;49.550;11.940;2023-02-23T06:22:32;96489.56;;;5.08;100.00
36598;BME280;22607;49.550;11.940;2023-02-23T06:24:58;96490.16;;;5.38;100.00
36598;BME280;22607;49.550;11.940;2023-02-23T06:27:25;96487.28;;;5.41;100.00
36598;BME280;22607;49.550;11.940;2023-02-23T06:29:51;96494.03;;;5.16;100.00
36598;BME280;22607;49.550;11.940;2023-02-23T06:32:19;96489.66;;;5.16;100.00
36598;BME280;22607;49.550;11.940;2023-02-23T06:34:46;96493.16;;;5.25;100.00
36598;BME280;22607;49.550;11.940;2023-02-23T06:37:12;96494.72;;;5.36;100.00
36598;BME280;22607;49.550;11.940;2023-02-23T06:39:39;96500.22;;;5.33;100.00
36598;BME280;22607;49.550;11.940;2023-02-23T06:42:05;96503.19;;;5.20;100.00
36598;BME280;22607;49.550;11.940;2023-02-23T06:44:33;96504.69;;;5.41;100.00
36598;BME280;22607;49.550;11.940;2023-02-23T06:47:03;96511.94;;;5.47;100.00
36598;BME280;22607;49.550;11.940;2023-02-23T06:49:34;96511.75;;;5.48;100.00
36598;BME280;22607;49.550;11.940;2023-02-23T06:52:00;96518.53;;;5.41;100.00
36598;BME280;22607;49.550;11.940;2023-02-23T06:54:28;96530.00;;;5.48;100.00
36598;BME280;22607;49.550;11.940;2023-02-23T06:56:54;96524.72;;;5.58;100.00
36598;BME280;22607;49.550;11.940;2023-02-23T06:59:21;96519.88;;;5.45;100.00
36598;BME280;22607;49.550;11.940;2023-02-23T07:01:49;96529.28;;;5.56;100.00
36598;BME280;22607;49.550;11.940;2023-02-23T07:04:16;96529.09;;;5.58;100.00
36598;BME280;22607;49.550;11.940;2023-02-23T07:06:43;96532.41;;;5.60;100.00
36598;BME280;22607;49.550;11.940;2023-02-23T07:09:09;96536.81;;;5.77;100.00
36598;BME280;22607;49.550;11.940;2023-02-23T07:11:35;96530.69;;;5.87;100.00
36598;BME280;22607;49.550;11.940;2023-02-23T07:14:02;96533.81;;;5.90;100.00
36598;BME280;22607;49.550;11.940;2023-02-23T07:16:31;96533.72;;;6.00;100.00
36598;BME280;22607;49.550;11.940;2023-02-23T07:18:58;96537.53;;;6.06;100.00
36598;BME280;22607;49.550;11.940;2023-02-23T07:21:24;96532.88;;;6.10;100.00
36598;BME280;22607;49.550;11.940;2023-02-23T07:23:51;96536.16;;;6.02;100.00
36598;BME280;22607;49.550;11.940;2023-02-23T07:26:17;96533.16;;;6.07;100.00
36598;BME280;22607;49.550;11.940;2023-02-23T07:28:44;96536.88;;;6.04;100.00
36598;BME280;22607;49.550;11.940;2023-02-23T07:31:10;96533.66;;;6.10;100.00
36598;BME280;22607;49.550;11.940;2023-02-23T07:33:37;96542.97;;;6.13;100.00
36598;BME280;22607;49.550;11.940;2023-02-23T07:36:04;96529.63;;;6.16;100.00
36598;BME280;22607;49.550;11.940;2023-02-23T07:38:31;96531.47;;;6.24;100.00
36598;BME280;22607;49.550;11.940;2023-02-23T07:40:57;96537.56;;;6.33;100.00
36598;BME280;22607;49.550;11.940;2023-02-23T07:43:25;96526.84;;;6.36;100.00
36598;BME280;22607;49.550;11.940;2023-02-23T07:45:51;96516.66;;;6.51;100.00
36598;BME280;22607;49.550;11.940;2023-02-23T07:48:18;96526.56;;;6.74;100.00
36598;BME280;22607;49.550;11.940;2023-02-23T07:50:45;96533.81;;;6.88;100.00
36598;BME280;22607;49.550;11.940;2023-02-23T07:53:12;96528.13;;;6.93;100.00
36598;BME280;22607;49.550;11.940;2023-02-23T07:55:38;96529.13;;;7.00;100.00
36598;BME280;22607;49.550;11.940;2023-02-23T07:58:06;96529.78;;;7.02;100.00
36598;BME280;22607;49.550;11.940;2023-02-23T08:00:35;96526.69;;;6.99;100.00
36598;BME280;22607;49.550;11.940;2023-02-23T08:03:05;96522.97;;;7.09;100.00
36598;BME280;22607;49.550;11.940;2023-02-23T08:05:32;96526.94;;;7.30;100.00
36598;BME280;22607;49.550;11.940;2023-02-23T08:07:58;96520.75;;;7.40;100.00
36598;BME280;22607;49.550;11.940;2023-02-23T08:10:25;96529.72;;;7.29;100.00
36598;BME280;22607;49.550;11.940;2023-02-23T08:12:52;96531.41;;;6.95;100.00
36598;BME280;22607;49.550;11.940;2023-02-23T08:15:18;96530.69;;;7.28;100.00
36598;BME280;22607;49.550;11.940;2023-02-23T08:17:45;96525.38;;;7.46;100.00
36598;BME280;22607;49.550;11.940;2023-02-23T08:20:11;96527.19;;;7.62;100.00
36598;BME280;22607;49.550;11.940;2023-02-23T08:22:38;96531.31;;;7.73;100.00
36598;BME280;22607;49.550;11.940;2023-02-23T08:25:15;96528.50;;;7.83;100.00
36598;BME280;22607;49.550;11.940;2023-02-23T08:27:42;96529.53;;;7.98;100.00
36598;BME280;22607;49.550;11.940;2023-02-23T08:30:09;96538.16;;;7.99;100.00
36598;BME280;22607;49.550;11.940;2023-02-23T08:32:36;96538.50;;;8.21;100.00
36598;BME280;22607;49.550;11.940;2023-02-23T08:35:02;96536.84;;;8.36;100.00
36598;BME280;22607;49.550;11.940;2023-02-23T08:37:29;96529.00;;;8.28;100.00
36598;BME280;22607;49.550;11.940;2023-02-23T08:39:56;96536.03;;;8.61;100.00
36598;BME280;22607;49.550;11.940;2023-02-23T08:42:29;96530.84;;;9.01;100.00
36598;BME280;22607;49.550;11.940;2023-02-23T08:44:55;96534.00;;;9.28;100.00
36598;BME280;22607;49.550;11.940;2023-02-23T08:47:22;96535.94;;;9.34;100.00
36598;BME280;22607;49.550;11.940;2023-02-23T08:49:49;96539.28;;;9.51;100.00
36598;BME280;22607;49.550;11.940;2023-02-23T08:52:16;96532.13;;;9.68;100.00
36598;BME280;22607;49.550;11.940;2023-02-23T08:54:42;96536.97;;;9.80;100.00
36598;BME280;22607;49.550;11.940;2023-02-23T08:57:09;96537.47;;;9.75;100.00
36598;BME280;22607;49.550;11.940;2023-02-23T08:59:38;96529.19;;;9.63;100.00
36598;BME280;22607;49.550;11.940;2023-02-23T09:02:06;96540.34;;;9.65;100.00
36598;BME280;22607;49.550;11.940;2023-02-23T09:04:34;96539.25;;;10.06;100.00
36598;BME280;22607;49.550;11.940;2023-02-23T09:07:01;96538.63;;;10.19;100.00
36598;BME280;22607;49.550;11.940;2023-02-23T09:09:34;96543.22;;;10.41;100.00
36598;BME280;22607;49.550;11.940;2023-02-23T09:12:00;96539.09;;;10.46;100.00
36598;BME280;22607;49.550;11.940;2023-02-23T09:14:28;96536.16;;;10.41;100.00
36598;BME280;22607;49.550;11.940;2023-02-23T09:16:55;96530.81;;;10.34;100.00
36598;BME280;22607;49.550;11.940;2023-02-23T09:19:21;96536.22;;;10.86;100.00
36598;BME280;22607;49.550;11.940;2023-02-23T09:21:48;96539.91;;;11.22;97.10
36598;BME280;22607;49.550;11.940;2023-02-23T09:24:14;96538.19;;;11.29;97.08
36598;BME280;22607;49.550;11.940;2023-02-23T09:26:43;96535.22;;;11.54;96.90
36598;BME280;22607;49.550;11.940;2023-02-23T09:29:11;96537.59;;;11.49;94.37
36598;BME280;22607;49.550;11.940;2023-02-23T09:31:38;96535.69;;;11.58;96.12
36598;BME280;22607;49.550;11.940;2023-02-23T09:34:04;96530.25;;;11.81;94.27
36598;BME280;22607;49.550;11.940;2023-02-23T09:36:31;96533.81;;;11.74;94.90
36598;BME280;22607;49.550;11.940;2023-02-23T09:38:57;96535.22;;;11.91;91.66
36598;BME280;22607;49.550;11.940;2023-02-23T09:43:59;96535.75;;;11.87;89.36
36598;BME280;22607;49.550;11.940;2023-02-23T09:49:22;96538.53;;;12.00;90.51
36598;BME280;22607;49.550;11.940;2023-02-23T09:51:53;96543.03;;;11.85;94.04
36598;BME280;22607;49.550;11.940;2023-02-23T09:54:27;96536.47;;;11.95;95.18
36598;BME280;22607;49.550;11.940;2023-02-23T09:56:56;96535.16;;;12.06;93.85
36598;BME280;22607;49.550;11.940;2023-02-23T09:59:26;96541.72;;;12.17;94.83
36598;BME280;22607;49.550;11.940;2023-02-23T10:04:47;96535.44;;;12.40;90.63
36598;BME280;22607;49.550;11.940;2023-02-23T10:07:35;96532.25;;;12.45;91.17
36598;BME280;22607;49.550;11.940;2023-02-23T10:10:42;96536.28;;;12.76;89.69
36598;BME280;22607;49.550;11.940;2023-02-23T10:16:23;96525.78;;;13.25;79.96
36598;BME280;22607;49.550;11.940;2023-02-23T10:21:39;96539.03;;;12.96;83.55
36598;BME280;22607;49.550;11.940;2023-02-23T10:24:26;96529.59;;;13.16;82.24
36598;BME280;22607;49.550;11.940;2023-02-23T10:27:04;96539.84;;;12.97;80.48
36598;BME280;22607;49.550;11.940;2023-02-23T10:29:48;96541.75;;;12.46;83.39
36598;BME280;22607;49.550;11.940;2023-02-23T10:35:26;96541.91;;;12.16;88.83
36598;BME280;22607;49.550;11.940;2023-02-23T10:37:57;96541.66;;;11.89;94.36
36598;BME280;22607;49.550;11.940;2023-02-23T10:40:27;96538.38;;;11.87;95.58
36598;BME280;22607;49.550;11.940;2023-02-23T10:42:56;96532.75;;;12.33;90.27
36598;BME280;22607;49.550;11.940;2023-02-23T10:45:25;96536.53;;;12.02;92.22
36598;BME280;22607;49.550;11.940;2023-02-23T10:47:59;96528.88;;;12.29;89.36
36598;BME280;22607;49.550;11.940;2023-02-23T10:50:28;96537.66;;;12.15;91.72
36598;BME280;22607;49.550;11.940;2023-02-23T10:56:11;96545.53;;;11.71;95.98
36598;BME280;22607;49.550;11.940;2023-02-23T10:58:45;96548.69;;;11.45;100.00
36598;BME280;22607;49.550;11.940;2023-02-23T11:04:23;96547.19;;;11.57;100.00
36598;BME280;22607;49.550;11.940;2023-02-23T11:07:49;96534.69;;;11.81;96.71
36598;BME280;22607;49.550;11.940;2023-02-23T11:09:58;96542.72;;;11.73;97.80
36598;BME280;22607;49.550;11.940;2023-02-23T11:12:36;96539.84;;;11.67;96.97
36598;BME280;22607;49.550;11.940;2023-02-23T11:15:26;96541.81;;;11.65;99.38
36598;BME280;22607;49.550;11.940;2023-02-23T11:18:18;96529.69;;;11.86;96.01
36598;BME280;22607;49.550;11.940;2023-02-23T11:20:46;96542.66;;;11.66;96.52
36598;BME280;22607;49.550;11.940;2023-02-23T11:23:22;96520.69;;;11.95;94.59
36598;BME280;22607;49.550;11.940;2023-02-23T11:25:51;96523.81;;;12.06;96.62
36598;BME280;22607;49.550;11.940;2023-02-23T11:28:26;96516.47;;;12.23;92.53
36598;BME280;22607;49.550;11.940;2023-02-23T11:31:08;96516.47;;;12.23;94.26
36598;BME280;22607;49.550;11.940;2023-02-23T11:33:39;96515.66;;;12.80;90.33
36598;BME280;22607;49.550;11.940;2023-02-23T11:36:14;96513.69;;;12.95;84.54
36598;BME280;22607;49.550;11.940;2023-02-23T11:38:43;96515.66;;;12.80;85.95
36598;BME280;22607;49.550;11.940;2023-02-23T11:41:22;96511.09;;;12.67;85.35
36598;BME280;22607;49.550;11.940;2023-02-23T11:43:50;96506.59;;;12.60;86.02
36598;BME280;22607;49.550;11.940;2023-02-23T11:46:19;96511.78;;;12.47;87.08
36598;BME280;22607;49.550;11.940;2023-02-23T11:48:52;96499.53;;;12.32;89.17
36598;BME280;22607;49.550;11.940;2023-02-23T11:53:55;96503.41;;;12.37;89.77
36598;BME280;22607;49.550;11.940;2023-02-23T11:56:23;96503.69;;;12.49;88.15
36598;BME280;22607;49.550;11.940;2023-02-23T11:59:02;96509.47;;;12.08;92.50
36598;BME280;22607;49.550;11.940;2023-02-23T12:01:45;96502.50;;;12.01;95.02
36598;BME280;22607;49.550;11.940;2023-02-23T12:04:25;96500.31;;;12.26;93.84
36598;BME280;22607;49.550;11.940;2023-02-23T12:09:44;96494.34;;;12.46;90.01
36598;BME280;22607;49.550;11.940;2023-02-23T12:12:17;96495.16;;;12.18;92.83
36598;BME280;22607;49.550;11.940;2023-02-23T12:14:55;96491.97;;;12.01;94.32
36598;BME280;22607;49.550;11.940;2023-02-23T12:17:30;96494.25;;;12.32;91.01
36598;BME280;22607;49.550;11.940;2023-02-23T12:22:46;96496.78;;;12.19;91.98
36598;BME280;22607;49.550;11.940;2023-02-23T12:25:27;96506.09;;;12.00;94.83
36598;BME280;22607;49.550;11.940;2023-02-23T12:28:08;96504.44;;;11.92;97.08
36598;BME280;22607;49.550;11.940;2023-02-23T12:30:52;96500.25;;;11.98;95.33
36598;BME280;22607;49.550;11.940;2023-02-23T12:33:25;96498.31;;;12.06;96.28
36598;BME280;22607;49.550;11.940;2023-02-23T12:38:53;96495.97;;;11.97;96.26
36598;BME280;22607;49.550;11.940;2023-02-23T12:41:32;96491.41;;;11.84;96.76
36598;BME280;22607;49.550;11.940;2023-02-23T12:47:06;96495.78;;;11.76;98.83
36598;BME280;22607;49.550;11.940;2023-02-23T12:49:44;96485.28;;;11.76;97.75
36598;BME280;22607;49.550;11.940;2023-02-23T12:52:35;96492.41;;;11.82;98.64
36598;BME280;22607;49.550;11.940;2023-02-23T12:54:59;96480.31;;;11.66;99.55
36598;BME280;22607;49.550;11.940;2023-02-23T13:00:10;96483.25;;;11.78;100.00
36598;BME280;22607;49.550;11.940;2023-02-23T13:03:25;96482.50;;;11.63;100.00
36598;BME280;22607;49.550;11.940;2023-02-23T13:14:33;96475.44;;;11.85;100.00
36598;BME280;22607;49.550;11.940;2023-02-23T13:20:00;96471.69;;;11.73;100.00
36598;BME280;22607;49.550;11.940;2023-02-23T13:22:48;96468.72;;;11.82;100.00
36598;BME280;22607;49.550;11.940;2023-02-23T13:25:28;96457.94;;;11.55;100.00
36598;BME280;22607;49.550;11.940;2023-02-23T13:28:02;96465.84;;;11.55;100.00
36598;BME280;22607;49.550;11.940;2023-02-23T13:30:31;96466.13;;;11.61;100.00
36598;BME280;22607;49.550;11.940;2023-02-23T13:33:03;96468.28;;;11.79;100.00
36598;BME280;22607;49.550;11.940;2023-02-23T13:35:37;96468.72;;;11.82;100.00
36598;BME280;22607;49.550;11.940;2023-02-23T13:38:40;96456.41;;;11.83;100.00
36598;BME280;22607;49.550;11.940;2023-02-23T13:41:39;96457.38;;;11.38;100.00
36598;BME280;22607;49.550;11.940;2023-02-23T13:44:21;96455.88;;;11.94;100.00
36598;BME280;22607;49.550;11.940;2023-02-23T13:47:00;96450.94;;;11.85;100.00
36598;BME280;22607;49.550;11.940;2023-02-23T13:49:42;96448.97;;;11.93;100.00
36598;BME280;22607;49.550;11.940;2023-02-23T13:55:01;96451.75;;;11.85;100.00
36598;BME280;22607;49.550;11.940;2023-02-23T13:57:30;96450.50;;;11.81;100.00
36598;BME280;22607;49.550;11.940;2023-02-23T13:59:58;96454.63;;;11.90;100.00
36598;BME280;22607;49.550;11.940;2023-02-23T14:02:36;96456.31;;;11.98;100.00
36598;BME280;22607;49.550;11.940;2023-02-23T14:05:22;96458.31;;;11.74;100.00
36598;BME280;22607;49.550;11.940;2023-02-23T14:07:58;96457.69;;;11.94;100.00
36598;BME280;22607;49.550;11.940;2023-02-23T14:10:37;96448.44;;;11.98;100.00
36598;BME280;22607;49.550;11.940;2023-02-23T14:15:48;96455.69;;;11.96;100.00
36598;BME280;22607;49.550;11.940;2023-02-23T14:20:54;96451.94;;;12.05;100.00
36598;BME280;22607;49.550;11.940;2023-02-23T14:28:41;96454.34;;;11.57;100.00
36598;BME280;22607;49.550;11.940;2023-02-23T14:41:39;96443.66;;;11.87;100.00
36598;BME280;22607;49.550;11.940;2023-02-23T14:49:26;96448.56;;;11.68;100.00
36598;BME280;22607;49.550;11.940;2023-02-23T14:51:55;96440.69;;;11.68;100.00
36598;BME280;22607;49.550;11.940;2023-02-23T14:54:30;96430.66;;;11.35;100.00
36598;BME280;22607;49.550;11.940;2023-02-23T14:56:59;96434.69;;;11.52;100.00
36598;BME280;22607;49.550;11.940;2023-02-23T14:59:34;96432.47;;;11.56;100.00
36598;BME280;22607;49.550;11.940;2023-02-23T15:02:07;96436.06;;;11.48;100.00
36598;BME280;22607;49.550;11.940;2023-02-23T15:04:34;96435.69;;;11.51;100.00
36598;BME280;22607;49.550;11.940;2023-02-23T15:07:04;96437.56;;;11.58;100.00
36598;BME280;22607;49.550;11.940;2023-02-23T15:09:37;96435.22;;;11.69;100.00
36598;BME280;22607;49.550;11.940;2023-02-23T15:12:21;96437.91;;;11.76;100.00